createdAt,value
2019-02-07T00:01:20.234Z,-4.59
2019-02-07T00:03:50.777Z,-4.54
2019-02-07T00:06:21.088Z,-4.73
2019-02-07T00:08:51.128Z,-4.84
2019-02-07T00:11:21.524Z,-4.94
2019-02-07T00:13:51.968Z,-4.69
2019-02-07T00:16:23.360Z,-4.79
2019-02-07T00:22:44.473Z,-4.77
2019-02-07T00:35:40.236Z,-5.25
2019-02-07T00:38:11.785Z,-5.16
2019-02-07T00:40:42.029Z,-5.07
2019-02-07T00:46:57.395Z,-5.06
2019-02-07T00:59:56.709Z,-5.02
2019-02-07T01:20:30.454Z,-5.58
2019-02-07T01:23:01.168Z,-5.52
2019-02-07T01:25:31.176Z,-5.58
2019-02-07T01:28:01.214Z,-5.44
2019-02-07T01:30:31.474Z,-5.37
2019-02-07T01:33:01.769Z,-5.47
2019-02-07T01:35:31.673Z,-5.23
2019-02-07T01:38:01.642Z,-5.18
2019-02-07T01:40:31.872Z,-5.10
2019-02-07T01:43:02.350Z,-5.07
2019-02-07T01:45:32.705Z,-5.06
2019-02-07T01:48:02.707Z,-5.06
2019-02-07T01:50:33.006Z,-5.12
2019-02-07T01:53:02.967Z,-5.25
2019-02-07T01:55:32.886Z,-5.26
2019-02-07T01:58:02.886Z,-5.20
2019-02-07T02:00:33.127Z,-5.43
2019-02-07T02:03:03.094Z,-5.58
2019-02-07T02:05:33.328Z,-5.61
2019-02-07T02:08:03.564Z,-5.67
2019-02-07T02:10:33.799Z,-5.71
2019-02-07T02:13:04.263Z,-5.74
2019-02-07T02:15:34.449Z,-5.67
2019-02-07T02:18:04.701Z,-5.67
2019-02-07T02:20:35.172Z,-5.72
2019-02-07T02:23:05.347Z,-5.60
2019-02-07T02:25:35.649Z,-5.67
2019-02-07T02:28:05.806Z,-5.62
2019-02-07T02:30:36.774Z,-5.39
2019-02-07T02:33:07.142Z,-5.40
2019-02-07T02:35:37.287Z,-5.53
2019-02-07T02:38:07.660Z,-5.43
2019-02-07T02:40:37.872Z,-5.34
2019-02-07T02:43:08.391Z,-5.43
2019-02-07T02:45:38.289Z,-5.44
2019-02-07T02:48:08.593Z,-5.39
2019-02-07T02:50:38.640Z,-5.35
2019-02-07T02:53:08.836Z,-5.54
2019-02-07T02:55:41.399Z,-5.66
2019-02-07T02:58:11.400Z,-5.77
2019-02-07T03:00:59.127Z,-5.78
2019-02-07T03:03:43.625Z,-5.78
2019-02-07T03:06:44.640Z,-5.70
2019-02-07T03:09:30.353Z,-5.54
2019-02-07T03:15:57.530Z,-5.52
2019-02-07T03:18:44.005Z,-5.53
2019-02-07T03:21:31.961Z,-5.71
2019-02-07T03:28:17.818Z,-5.53
2019-02-07T03:38:04.347Z,-5.39
2019-02-07T03:48:04.772Z,-5.77
2019-02-07T03:50:52.439Z,-5.57
2019-02-07T03:53:51.031Z,-5.46
2019-02-07T03:56:32.013Z,-5.18
2019-02-07T03:59:13.342Z,-5.03
2019-02-07T04:01:55.160Z,-5.03
2019-02-07T04:04:49.163Z,-4.97
2019-02-07T04:07:35.357Z,-4.94
2019-02-07T04:10:26.780Z,-5.02
2019-02-07T04:13:16.252Z,-4.97
2019-02-07T04:15:59.682Z,-5.14
2019-02-07T04:18:44.136Z,-5.13
2019-02-07T04:21:25.188Z,-5.25
2019-02-07T04:24:12.942Z,-5.32
2019-02-07T04:26:57.400Z,-5.46
2019-02-07T04:29:42.064Z,-5.33
2019-02-07T04:32:39.298Z,-5.21
2019-02-07T04:35:43.942Z,-5.10
2019-02-07T04:38:29.835Z,-5.18
2019-02-07T04:41:27.983Z,-5.17
2019-02-07T04:44:06.646Z,-4.90
2019-02-07T04:47:01.534Z,-4.76
2019-02-07T04:49:45.229Z,-4.67
2019-02-07T04:52:36.962Z,-4.63
2019-02-07T04:55:24.994Z,-4.55
2019-02-07T04:58:06.636Z,-4.52
2019-02-07T05:00:51.817Z,-4.49
2019-02-07T05:03:38.789Z,-4.42
2019-02-07T05:06:18.077Z,-4.36
2019-02-07T05:09:16.327Z,-4.34
2019-02-07T05:12:09.254Z,-4.32
2019-02-07T05:14:55.984Z,-4.31
2019-02-07T05:17:49.877Z,-4.27
2019-02-07T05:20:37.414Z,-4.28
2019-02-07T05:23:16.620Z,-4.24
2019-02-07T05:26:10.375Z,-4.24
2019-02-07T05:28:51.313Z,-4.24
2019-02-07T05:31:46.025Z,-4.20
2019-02-07T05:34:32.732Z,-4.12
2019-02-07T05:37:24.267Z,-4.06
2019-02-07T05:40:12.190Z,-4.05
2019-02-07T05:43:15.297Z,-4.06
2019-02-07T05:45:55.698Z,-4.08
2019-02-07T05:48:53.460Z,-4.18
2019-02-07T05:51:37.418Z,-4.28
2019-02-07T05:54:26.490Z,-4.33
2019-02-07T05:57:12.439Z,-4.38
2019-02-07T05:59:56.125Z,-4.42
2019-02-07T06:02:43.549Z,-4.41
2019-02-07T06:05:31.310Z,-4.49
2019-02-07T06:08:19.006Z,-4.51
2019-02-07T06:14:59.862Z,-4.48
2019-02-07T06:28:48.116Z,-4.81
2019-02-07T06:31:43.091Z,-4.76
2019-02-07T06:34:35.886Z,-4.55
2019-02-07T06:37:13.205Z,-4.59
2019-02-07T06:40:08.261Z,-4.59
2019-02-07T06:42:52.674Z,-4.46
2019-02-07T06:45:40.350Z,-4.46
2019-02-07T06:48:35.252Z,-4.34
2019-02-07T06:51:36.169Z,-4.29
2019-02-07T06:54:16.565Z,-4.21
2019-02-07T06:57:11.173Z,-4.13
2019-02-07T06:59:54.087Z,-4.07
2019-02-07T07:02:38.641Z,-3.94
2019-02-07T07:05:20.322Z,-3.88
2019-02-07T07:08:07.953Z,-3.81
2019-02-07T07:10:59.979Z,-3.71
2019-02-07T07:13:40.739Z,-3.61
2019-02-07T07:16:31.251Z,-3.52
2019-02-07T07:19:29.120Z,-3.45
2019-02-07T07:22:16.676Z,-3.38
2019-02-07T07:25:23.922Z,-3.24
2019-02-07T07:28:24.957Z,-3.11
2019-02-07T07:31:22.955Z,-2.94
2019-02-07T07:34:01.682Z,-2.72
2019-02-07T07:36:50.721Z,-2.57
2019-02-07T07:39:40.417Z,-2.43
2019-02-07T07:42:32.192Z,-2.50
2019-02-07T07:45:26.903Z,-2.23
2019-02-07T07:48:29.380Z,-2.11
2019-02-07T07:51:05.697Z,-2.07
2019-02-07T07:53:57.435Z,-1.93
2019-02-07T07:57:01.776Z,-1.77
2019-02-07T07:59:49.215Z,-1.52
2019-02-07T08:02:30.647Z,-1.25
2019-02-07T08:05:19.055Z,-1.26
2019-02-07T08:08:11.230Z,-1.08
2019-02-07T08:10:50.969Z,-0.85
2019-02-07T08:13:45.892Z,-0.74
2019-02-07T08:16:26.056Z,-0.73
2019-02-07T08:19:18.253Z,-0.66
2019-02-07T08:21:53.526Z,-0.63
2019-02-07T08:24:51.695Z,-0.82
2019-02-07T08:27:35.464Z,-0.86
2019-02-07T08:30:36.014Z,-0.41
2019-02-07T08:33:14.155Z,-0.12
2019-02-07T08:36:09.523Z,0.21
2019-02-07T08:38:54.972Z,0.29
2019-02-07T08:41:48.345Z,0.64
2019-02-07T08:44:34.950Z,0.65
2019-02-07T08:47:29.777Z,0.90
2019-02-07T08:50:17.677Z,1.04
2019-02-07T08:53:10.046Z,1.15
2019-02-07T08:56:02.521Z,1.59
2019-02-07T08:58:45.250Z,1.77
2019-02-07T09:01:23.335Z,1.88
2019-02-07T09:04:10.777Z,1.69
2019-02-07T09:07:09.245Z,1.89
2019-02-07T09:09:51.112Z,2.13
2019-02-07T09:12:40.327Z,2.62
2019-02-07T09:15:18.526Z,2.63
2019-02-07T09:18:10.360Z,2.68
2019-02-07T09:20:53.682Z,2.56
2019-02-07T09:23:39.552Z,2.27
2019-02-07T09:26:34.966Z,2.12
2019-02-07T09:29:22.672Z,2.37
2019-02-07T09:32:18.306Z,2.85
2019-02-07T09:35:07.287Z,2.37
2019-02-07T09:37:49.445Z,1.83
2019-02-07T09:40:46.087Z,2.29
2019-02-07T09:43:53.182Z,2.77
2019-02-07T09:46:48.717Z,2.41
2019-02-07T09:49:38.874Z,1.70
2019-02-07T09:52:26.852Z,1.84
2019-02-07T09:55:28.089Z,2.36
2019-02-07T09:58:15.112Z,2.50
2019-02-07T10:01:02.961Z,2.22
2019-02-07T10:04:01.326Z,2.43
2019-02-07T10:06:52.821Z,2.53
2019-02-07T10:09:43.367Z,1.96
2019-02-07T10:12:30.844Z,1.58
2019-02-07T10:15:09.057Z,2.05
2019-02-07T10:18:13.354Z,2.07
2019-02-07T10:21:10.953Z,2.05
2019-02-07T10:23:57.502Z,1.71
2019-02-07T10:26:55.594Z,2.17
2019-02-07T10:29:50.893Z,2.08
2019-02-07T10:32:32.567Z,2.00
2019-02-07T10:35:27.571Z,1.76
2019-02-07T10:38:22.521Z,1.62
2019-02-07T10:41:04.200Z,1.16
2019-02-07T10:44:02.726Z,1.25
2019-02-07T10:46:50.915Z,1.46
2019-02-07T10:49:38.643Z,1.06
2019-02-07T10:52:17.806Z,1.07
2019-02-07T10:54:59.369Z,0.94
2019-02-07T10:57:40.231Z,0.75
2019-02-07T11:00:37.905Z,0.30
2019-02-07T11:03:27.837Z,0.51
2019-02-07T11:06:23.025Z,0.96
2019-02-07T11:09:15.010Z,1.11
2019-02-07T11:11:59.182Z,1.17
2019-02-07T11:14:50.230Z,1.27
2019-02-07T11:17:34.138Z,1.31
2019-02-07T11:20:24.621Z,1.29
2019-02-07T11:23:16.299Z,1.29
2019-02-07T11:26:05.511Z,0.78
2019-02-07T11:28:46.630Z,0.69
2019-02-07T11:31:31.453Z,0.75
2019-02-07T11:34:38.503Z,0.89
2019-02-07T11:37:24.063Z,1.13
2019-02-07T11:40:04.141Z,1.41
2019-02-07T11:42:44.557Z,1.48
2019-02-07T11:45:28.160Z,1.25
2019-02-07T11:48:17.150Z,1.28
2019-02-07T11:50:55.392Z,1.54
2019-02-07T11:53:46.473Z,1.46
2019-02-07T12:02:43.580Z,1.16
2019-02-07T12:05:30.487Z,1.20
2019-02-07T12:08:16.340Z,1.59
2019-02-07T12:10:59.362Z,1.61
2019-02-07T12:13:46.283Z,1.24
2019-02-07T12:16:24.983Z,1.43
2019-02-07T12:19:18.215Z,1.68
2019-02-07T12:22:05.200Z,1.60
2019-02-07T12:24:47.857Z,1.62
2019-02-07T12:27:25.841Z,1.70
2019-02-07T12:30:20.821Z,1.69
2019-02-07T12:32:58.650Z,1.82
2019-02-07T12:35:38.688Z,1.88
2019-02-07T12:38:28.278Z,1.94
2019-02-07T12:41:20.712Z,1.89
2019-02-07T12:44:21.698Z,1.89
2019-02-07T12:47:09.469Z,2.05
2019-02-07T12:50:03.149Z,2.23
2019-02-07T12:52:56.375Z,1.98
2019-02-07T12:55:52.905Z,2.00
2019-02-07T13:02:21.030Z,2.29
2019-02-07T13:16:35.873Z,2.84
2019-02-07T13:19:25.040Z,2.99
2019-02-07T13:22:13.949Z,2.82
2019-02-07T13:24:59.101Z,2.72
2019-02-07T13:27:56.995Z,2.46
2019-02-07T13:30:56.506Z,2.75
2019-02-07T13:33:57.360Z,2.83
2019-02-07T13:36:43.928Z,2.98
2019-02-07T13:39:31.724Z,3.11
2019-02-07T13:42:10.454Z,3.21
2019-02-07T13:45:13.919Z,3.32
2019-02-07T13:48:07.285Z,3.36
2019-02-07T13:51:05.332Z,3.55
2019-02-07T13:53:48.289Z,3.52
2019-02-07T13:56:42.962Z,3.47
2019-02-07T13:59:26.028Z,3.58
2019-02-07T14:02:23.982Z,3.75
2019-02-07T14:09:01.822Z,3.95
2019-02-07T15:00:36.368Z,4.50
2019-02-07T15:03:06.848Z,4.63
2019-02-07T15:05:37.028Z,4.68
2019-02-07T15:08:07.159Z,4.73
2019-02-07T15:10:37.181Z,4.87
2019-02-07T15:13:07.253Z,4.93
2019-02-07T15:15:37.445Z,4.95
2019-02-07T15:18:07.794Z,4.97
2019-02-07T15:20:38.190Z,4.95
2019-02-07T15:23:08.659Z,4.99
2019-02-07T15:53:21.770Z,4.71
2019-02-07T15:55:51.721Z,4.38
2019-02-07T15:58:30.175Z,4.53
2019-02-07T16:01:05.830Z,4.44
2019-02-07T16:03:43.098Z,4.46
2019-02-07T16:06:13.759Z,4.54
2019-02-07T16:08:43.696Z,4.68
2019-02-07T16:11:14.164Z,4.75
2019-02-07T16:13:44.331Z,4.77
2019-02-07T16:16:14.409Z,4.81
2019-02-07T16:18:44.559Z,4.51
2019-02-07T16:21:14.594Z,4.35
2019-02-07T16:23:44.856Z,4.12
2019-02-07T16:26:15.513Z,3.64
2019-02-07T16:28:45.583Z,3.58
2019-02-07T16:31:15.956Z,3.55
2019-02-07T16:33:46.078Z,3.67
2019-02-07T16:36:16.729Z,3.65
2019-02-07T16:38:46.834Z,3.78
2019-02-07T16:41:17.045Z,3.80
2019-02-07T16:43:47.267Z,3.90
2019-02-07T16:46:17.406Z,3.99
2019-02-07T16:48:47.525Z,4.24
2019-02-07T16:51:18.435Z,4.36
2019-02-07T16:53:49.875Z,4.42
2019-02-07T16:56:20.745Z,4.24
2019-02-07T16:58:51.637Z,4.04
2019-02-07T17:01:22.329Z,3.93
2019-02-07T17:03:54.070Z,3.56
2019-02-07T17:06:26.240Z,3.27
2019-02-07T17:08:57.241Z,3.15
2019-02-07T17:11:28.511Z,3.13
2019-02-07T17:14:00.889Z,3.13
2019-02-07T17:16:33.639Z,3.06
2019-02-07T17:19:06.794Z,3.12
2019-02-07T17:21:37.088Z,3.09
2019-02-07T17:24:08.841Z,3.07
2019-02-07T17:26:42.053Z,3.10
2019-02-07T17:29:12.369Z,3.12
2019-02-07T17:31:43.121Z,3.11
2019-02-07T17:34:14.362Z,3.19
2019-02-07T17:36:47.292Z,3.15
2019-02-07T17:39:18.044Z,3.16
2019-02-07T17:41:48.526Z,3.05
2019-02-07T17:44:20.575Z,3.03
2019-02-07T17:46:51.892Z,3.00
2019-02-07T17:49:23.914Z,2.97
2019-02-07T17:51:54.491Z,3.03
2019-02-07T17:54:26.189Z,3.15
2019-02-07T17:56:56.777Z,3.18
2019-02-07T17:59:27.384Z,3.25
2019-02-07T18:01:58.585Z,3.27
2019-02-07T18:04:30.255Z,3.32
2019-02-07T18:07:03.826Z,3.36
2019-02-07T18:09:34.378Z,3.23
2019-02-07T18:12:06.931Z,2.98
2019-02-07T18:14:38.135Z,2.70
2019-02-07T18:17:09.472Z,2.59
2019-02-07T18:19:40.797Z,2.57
2019-02-07T18:22:13.552Z,2.64
2019-02-07T18:24:45.601Z,2.73
2019-02-07T18:27:17.814Z,2.79
2019-02-07T18:29:50.192Z,2.78
2019-02-07T18:32:23.247Z,2.76
2019-02-07T18:34:57.671Z,2.60
2019-02-07T18:37:32.667Z,2.36
2019-02-07T18:40:07.090Z,2.19
2019-02-07T18:42:40.653Z,2.13
2019-02-07T19:01:12.435Z,1.81
2019-02-07T19:03:48.896Z,1.78
2019-02-07T19:06:22.108Z,1.85
2019-02-07T19:08:57.280Z,1.92
2019-02-07T19:11:31.267Z,1.88
2019-02-07T19:14:04.206Z,2.00
2019-02-07T19:16:37.831Z,1.86
2019-02-07T19:19:09.148Z,1.68
2019-02-07T19:21:41.913Z,1.65
2019-02-07T19:24:15.310Z,1.88
2019-02-07T19:26:49.456Z,2.00
2019-02-07T19:29:22.717Z,2.10
2019-02-07T19:31:57.489Z,2.04
2019-02-07T19:34:33.655Z,2.15
2019-02-07T19:37:11.281Z,2.22
2019-02-07T19:46:49.483Z,2.19
2019-02-07T19:49:23.488Z,2.15
2019-02-07T19:51:56.313Z,2.15
2019-02-07T19:54:30.740Z,2.19
2019-02-07T19:57:04.325Z,2.23
2019-02-07T19:59:38.333Z,2.30
2019-02-07T20:02:12.651Z,2.39
2019-02-07T20:04:47.442Z,2.68
2019-02-07T20:07:20.738Z,2.72
2019-02-07T20:09:55.698Z,2.52
2019-02-07T20:12:30.925Z,2.52
2019-02-07T20:15:12.201Z,2.56
2019-02-07T20:17:46.273Z,2.60
2019-02-07T20:20:20.519Z,2.43
2019-02-07T20:22:54.469Z,2.37
2019-02-07T20:25:29.405Z,2.29
2019-02-07T20:28:03.961Z,2.02
2019-02-07T20:30:41.932Z,1.71
2019-02-07T20:33:17.148Z,1.76
2019-02-07T20:35:50.820Z,1.70
2019-02-07T20:38:24.192Z,1.53
2019-02-07T20:40:59.197Z,1.47
2019-02-07T20:43:33.991Z,1.39
2019-02-07T20:46:07.731Z,1.43
2019-02-07T20:48:40.979Z,1.23
2019-02-07T20:51:13.839Z,0.89
2019-02-07T20:53:47.893Z,0.71
2019-02-07T21:03:52.748Z,0.22
2019-02-07T21:06:25.232Z,0.33
2019-02-07T21:08:59.800Z,0.20
2019-02-07T21:11:32.588Z,0.05
2019-02-07T21:14:05.700Z,0.00
2019-02-07T21:16:37.689Z,-0.11
2019-02-07T21:19:10.262Z,-0.06
2019-02-07T21:21:41.979Z,-0.14
2019-02-07T21:24:13.248Z,-0.29
2019-02-07T21:26:45.360Z,-0.21
2019-02-07T21:34:10.202Z,-0.11
2019-02-07T21:59:09.366Z,0.42
2019-02-07T22:01:39.422Z,0.29
2019-02-07T23:04:10.827Z,0.89
2019-02-07T23:06:40.848Z,0.71
2019-02-07T23:09:14.311Z,0.96
2019-02-07T23:11:44.604Z,0.91
2019-02-07T23:14:14.946Z,0.86
2019-02-07T23:16:45.220Z,0.83
2019-02-07T23:19:15.609Z,0.84
2019-02-07T23:21:46.411Z,0.93
2019-02-07T23:24:17.055Z,0.98
2019-02-07T23:26:47.072Z,1.03
2019-02-07T23:29:17.730Z,1.08
2019-02-07T23:31:47.892Z,1.21
2019-02-07T23:34:17.970Z,1.20
2019-02-07T23:36:48.138Z,1.34
2019-02-07T23:39:18.228Z,1.33
2019-02-07T23:41:48.606Z,1.25
2019-02-07T23:44:18.678Z,1.28
2019-02-07T23:46:48.855Z,1.31
2019-02-07T23:49:18.851Z,1.38
2019-02-07T23:51:48.851Z,1.40
2019-02-07T23:54:19.156Z,1.45
2019-02-07T23:56:49.600Z,1.46
2019-02-07T23:59:19.616Z,1.49
